Air Navigation Services of Czech Republic
Airport: LKLN Updated:  25.07.2017 12:08:04  UTC
 METAR LKLN 25.07. 12:00 ...
METAR LKLN 251200Z AUTO 24014G24KT 200V310 9999 FEW026 BKN034 BKN076 17/10 Q1005=